Terminal Aerodrome Forecast
Issued by NWS

Home | Current Version | Previous Version | Text Only | Print | Product List | Glossary Off
Versions: 1 2 3 4 5 6 7 8 9 10 11 12 13 14 15 16 17

308
FTUS45 KGGW 031720
TAFSDY
TAF
KSDY 031720Z 0318/0418 28012KT P6SM BKN015
     FM032300 30005KT P6SM FEW015 BKN150
      AMD LTD TO CLD VIS AND WIND=

USA.gov is the U.S. government's official web portal to all federal, state and local government web resources and services.